createdAt,value
2022-12-18T01:19:29.719Z,18.80
2022-12-18T01:20:00.585Z,22.10
2022-12-18T01:20:31.406Z,22.70
2022-12-18T01:21:02.272Z,22.40
2022-12-18T01:21:33.082Z,23.60
2022-12-18T01:22:03.900Z,23.10
2022-12-18T01:22:34.754Z,24.30
2022-12-18T01:23:05.580Z,26.40
2022-12-18T01:23:36.830Z,23.20
2022-12-18T01:24:07.838Z,20.90
2022-12-18T01:24:38.647Z,22.30
2022-12-18T01:25:09.448Z,25.40
2022-12-18T01:25:40.260Z,28.50
2022-12-18T01:26:11.069Z,29.20
2022-12-18T01:26:41.868Z,27.60
2022-12-18T01:27:12.677Z,29.20
2022-12-18T01:27:43.486Z,24.50
2022-12-18T01:28:14.268Z,23.10
2022-12-18T01:28:45.063Z,23.20
2022-12-18T01:29:15.851Z,23.00
2022-12-18T01:29:46.629Z,23.00
2022-12-18T01:30:17.426Z,21.30
2022-12-18T01:30:48.247Z,20.20
2022-12-18T01:31:19.078Z,19.40
2022-12-18T01:31:49.973Z,20.50
2022-12-18T01:32:20.828Z,20.90
2022-12-18T01:32:51.658Z,23.90
2022-12-18T01:33:22.489Z,23.20
2022-12-18T01:34:53.261Z,21.20
2022-12-18T01:35:24.035Z,19.80
2022-12-18T01:35:54.787Z,23.10
2022-12-18T01:36:25.547Z,25.00
2022-12-18T01:36:56.318Z,24.30
2022-12-18T01:37:27.099Z,26.10
2022-12-18T01:37:57.878Z,24.20
2022-12-18T01:38:28.656Z,25.10
2022-12-18T01:38:59.429Z,25.30
2022-12-18T01:39:30.190Z,27.00
2022-12-18T01:40:00.959Z,27.30
2022-12-18T01:40:31.720Z,25.80
2022-12-18T01:41:02.502Z,23.30
2022-12-18T01:41:33.250Z,21.50
2022-12-18T01:42:04.008Z,23.10
2022-12-18T01:42:34.779Z,22.00
2022-12-18T01:43:05.558Z,22.50
2022-12-18T01:43:36.667Z,21.50
2022-12-18T01:44:07.673Z,23.00
2022-12-18T01:44:38.450Z,20.70
2022-12-18T01:45:09.225Z,23.30
2022-12-18T01:45:40.044Z,23.00
2022-12-18T01:46:10.903Z,23.60
2022-12-18T01:46:41.700Z,23.50
2022-12-18T01:47:12.459Z,24.00
2022-12-18T01:47:43.250Z,23.00
2022-12-18T01:48:16.160Z,25.40
2022-12-18T01:48:47.011Z,22.90
2022-12-18T01:49:17.818Z,21.30
2022-12-18T01:49:48.609Z,22.80
2022-12-18T01:50:19.441Z,25.40
2022-12-18T01:50:50.201Z,23.90
2022-12-18T01:51:20.961Z,22.10
2022-12-18T01:51:51.945Z,22.70
2022-12-18T01:52:22.701Z,22.60
2022-12-18T01:52:53.461Z,23.40
2022-12-18T01:53:24.241Z,22.80
2022-12-18T01:53:54.991Z,23.80
2022-12-18T01:54:25.741Z,23.90
2022-12-18T01:54:56.508Z,21.90
2022-12-18T01:55:27.260Z,21.50
2022-12-18T01:55:58.040Z,23.20
2022-12-18T01:56:28.799Z,23.10
2022-12-18T01:56:59.573Z,21.40
2022-12-18T01:57:30.342Z,21.30
2022-12-18T01:58:01.108Z,24.10
2022-12-18T01:58:31.890Z,24.00
2022-12-18T01:59:02.663Z,24.00
2022-12-18T01:59:33.450Z,22.90
2022-12-18T02:00:04.203Z,23.60
2022-12-18T02:00:34.999Z,23.20
2022-12-18T02:01:05.797Z,21.90
2022-12-18T02:01:36.702Z,22.40
2022-12-18T02:02:07.674Z,21.80
2022-12-18T02:02:38.637Z,20.40
2022-12-18T02:03:09.476Z,22.10
2022-12-18T02:03:40.848Z,23.30
2022-12-18T02:04:11.872Z,22.40
2022-12-18T02:04:47.818Z,21.70
2022-12-18T02:05:15.252Z,20.40
2022-12-18T02:05:46.005Z,23.30
2022-12-18T02:06:16.776Z,23.10
2022-12-18T02:06:47.572Z,23.60
2022-12-18T02:07:18.333Z,23.60
2022-12-18T02:07:49.097Z,21.10
2022-12-18T02:08:19.872Z,21.20
2022-12-18T02:08:50.662Z,20.70
2022-12-18T02:09:21.453Z,22.30
2022-12-18T02:09:52.221Z,21.40
2022-12-18T02:10:22.983Z,21.90
2022-12-18T02:10:53.804Z,22.30
2022-12-18T02:11:24.590Z,22.60
2022-12-18T02:11:55.343Z,22.10
2022-12-18T02:12:26.114Z,23.70
2022-12-18T02:12:56.877Z,22.30
2022-12-18T02:13:27.682Z,24.30
2022-12-18T02:13:58.432Z,22.40
2022-12-18T02:14:29.212Z,21.60
2022-12-18T02:14:59.961Z,22.00
2022-12-18T02:15:30.741Z,22.10
2022-12-18T02:16:01.524Z,22.30
2022-12-18T02:16:32.314Z,22.50
2022-12-18T02:17:03.178Z,23.40
2022-12-18T02:17:33.951Z,22.50
2022-12-18T02:18:04.723Z,21.90
2022-12-18T02:18:35.511Z,22.50
2022-12-18T02:19:06.287Z,22.60
2022-12-18T02:19:37.075Z,21.30
2022-12-18T02:20:07.846Z,21.40
2022-12-18T02:20:38.607Z,21.10
2022-12-18T02:21:09.386Z,22.50
2022-12-18T02:21:40.155Z,23.30
2022-12-18T02:22:10.925Z,22.60
2022-12-18T02:22:41.709Z,20.40
2022-12-18T02:23:12.482Z,22.20
2022-12-18T02:23:43.281Z,23.10
2022-12-18T02:24:14.035Z,23.10
2022-12-18T02:24:44.797Z,21.60
2022-12-18T02:25:15.566Z,22.70
2022-12-18T02:25:46.324Z,23.00
2022-12-18T02:26:17.091Z,21.40
2022-12-18T02:26:47.865Z,21.70
2022-12-18T02:27:18.626Z,22.10
2022-12-18T02:27:49.386Z,21.20
2022-12-18T02:28:20.157Z,21.90
2022-12-18T02:28:50.945Z,21.70
2022-12-18T02:29:21.717Z,21.70
2022-12-18T02:29:57.844Z,21.60
2022-12-18T02:30:25.150Z,22.40
2022-12-18T02:30:55.918Z,22.40
2022-12-18T02:31:26.680Z,21.90
2022-12-18T02:31:57.436Z,22.60
2022-12-18T02:32:28.206Z,21.40
2022-12-18T02:32:58.965Z,22.40
2022-12-18T02:33:29.835Z,22.80
2022-12-18T02:34:00.616Z,20.40
2022-12-18T02:34:31.386Z,22.40
2022-12-18T02:35:02.157Z,22.70
2022-12-18T02:35:32.916Z,22.50
2022-12-18T02:36:03.690Z,21.40
2022-12-18T02:36:34.456Z,22.30
2022-12-18T02:37:05.241Z,21.70
2022-12-18T02:37:36.014Z,22.70
2022-12-18T02:38:06.787Z,21.90
2022-12-18T02:38:37.549Z,21.40
2022-12-18T02:39:08.316Z,21.80
2022-12-18T02:39:40.056Z,22.20
2022-12-18T02:40:10.842Z,22.30
2022-12-18T02:40:41.629Z,21.90
2022-12-18T02:41:12.393Z,21.80
2022-12-18T02:41:43.156Z,21.30
2022-12-18T02:42:13.928Z,22.50
2022-12-18T02:42:44.705Z,21.60
2022-12-18T02:43:15.458Z,20.20
2022-12-18T02:43:46.247Z,22.00
2022-12-18T02:44:17.029Z,21.70
2022-12-18T02:44:47.790Z,21.80
2022-12-18T02:45:18.551Z,22.50
2022-12-18T02:45:49.381Z,21.00
2022-12-18T02:46:20.229Z,22.00
2022-12-18T02:46:50.999Z,22.10
2022-12-18T02:47:21.777Z,21.20
2022-12-18T02:47:52.596Z,21.10
2022-12-18T02:48:23.358Z,21.50
2022-12-18T02:48:54.131Z,20.60
2022-12-18T02:49:24.928Z,21.60
2022-12-18T02:49:55.702Z,22.90
2022-12-18T02:50:26.476Z,21.80
2022-12-18T02:50:57.239Z,22.00
2022-12-18T02:51:27.997Z,21.70
2022-12-18T02:51:58.817Z,21.40
2022-12-18T02:52:29.578Z,21.50
2022-12-18T02:53:00.356Z,20.40
2022-12-18T02:53:31.121Z,20.80
2022-12-18T02:54:01.926Z,21.60
2022-12-18T02:54:32.697Z,20.30
2022-12-18T02:55:03.467Z,22.30
2022-12-18T02:55:34.254Z,21.20
2022-12-18T02:56:05.019Z,21.50
2022-12-18T02:56:35.789Z,21.60
2022-12-18T02:57:06.551Z,21.60
2022-12-18T02:57:37.320Z,21.30
2022-12-18T02:58:08.094Z,21.50
2022-12-18T02:58:38.848Z,20.90
2022-12-18T02:59:09.617Z,20.20
2022-12-18T02:59:40.382Z,20.40
2022-12-18T03:00:11.162Z,21.00
2022-12-18T03:00:41.920Z,21.50
2022-12-18T03:01:12.774Z,22.10
2022-12-18T03:01:43.692Z,22.30
2022-12-18T03:02:14.781Z,21.10
2022-12-18T03:02:45.856Z,22.20
2022-12-18T03:03:16.746Z,20.20
2022-12-18T03:03:47.760Z,21.20
2022-12-18T03:04:18.516Z,20.00
2022-12-18T03:04:49.291Z,20.30
2022-12-18T03:05:20.064Z,20.70
2022-12-18T03:05:50.809Z,21.40
2022-12-18T03:06:21.590Z,19.90
2022-12-18T03:06:52.338Z,21.00
2022-12-18T03:07:23.102Z,21.00
2022-12-18T03:07:53.871Z,20.90
2022-12-18T03:08:24.644Z,20.30
2022-12-18T03:08:55.407Z,20.80
2022-12-18T03:09:26.168Z,20.60
2022-12-18T03:09:57.249Z,21.20
2022-12-18T03:10:28.011Z,21.50
2022-12-18T03:10:58.761Z,19.30
2022-12-18T03:11:29.531Z,21.10
2022-12-18T03:12:00.289Z,19.70
2022-12-18T03:12:31.056Z,18.40
2022-12-18T03:13:01.811Z,20.70
2022-12-18T03:13:32.585Z,20.40
2022-12-18T03:14:03.350Z,20.20
2022-12-18T03:14:34.095Z,20.80
2022-12-18T03:15:04.871Z,22.40
2022-12-18T03:15:35.624Z,19.80
2022-12-18T03:16:06.392Z,19.60
2022-12-18T03:16:37.189Z,21.00
2022-12-18T03:17:07.961Z,19.40
2022-12-18T03:17:38.724Z,18.90
2022-12-18T03:18:09.491Z,20.00
2022-12-18T03:18:40.257Z,19.70
2022-12-18T03:19:11.020Z,20.20
2022-12-18T03:19:41.862Z,20.70
2022-12-18T03:20:12.639Z,18.60
2022-12-18T03:20:43.392Z,18.80
2022-12-18T03:21:14.141Z,20.60
2022-12-18T03:21:44.923Z,20.20
2022-12-18T03:22:15.680Z,21.50
2022-12-18T03:22:46.447Z,20.00
2022-12-18T03:23:17.192Z,20.60
2022-12-18T03:23:47.983Z,19.80
2022-12-18T03:24:18.745Z,19.70
2022-12-18T03:24:49.503Z,20.20
2022-12-18T03:25:20.295Z,19.30
2022-12-18T03:25:51.049Z,20.40
2022-12-18T03:26:21.809Z,20.60
2022-12-18T03:26:52.572Z,18.00
2022-12-18T03:27:23.345Z,19.80
2022-12-18T03:27:54.137Z,19.40
2022-12-18T03:28:24.883Z,20.80
2022-12-18T03:28:55.655Z,20.80
2022-12-18T03:29:26.431Z,20.30
2022-12-18T03:29:57.392Z,19.10
2022-12-18T03:30:28.153Z,19.40
2022-12-18T03:30:58.933Z,18.10
2022-12-18T03:31:29.734Z,19.60
2022-12-18T03:32:00.513Z,19.60
2022-12-18T03:32:31.288Z,19.60
2022-12-18T03:33:02.064Z,19.80
2022-12-18T03:33:32.842Z,19.10
2022-12-18T03:34:03.623Z,20.40
2022-12-18T03:34:34.377Z,19.60
2022-12-18T03:35:05.184Z,20.10
2022-12-18T03:35:35.942Z,19.90
2022-12-18T03:36:06.712Z,19.10
2022-12-18T03:36:37.504Z,19.20
2022-12-18T03:37:08.266Z,19.40
2022-12-18T03:37:39.120Z,19.70
2022-12-18T03:38:10.064Z,20.20
2022-12-18T03:38:40.833Z,19.80
2022-12-18T03:39:11.596Z,20.80
2022-12-18T03:39:42.357Z,19.90
2022-12-18T03:40:13.153Z,19.50
2022-12-18T03:40:43.912Z,18.60
2022-12-18T03:41:14.667Z,18.70
2022-12-18T03:41:45.435Z,20.10
2022-12-18T03:42:16.214Z,18.60
2022-12-18T03:42:46.980Z,19.30
2022-12-18T03:43:17.754Z,19.30
2022-12-18T03:43:48.534Z,19.90
2022-12-18T03:44:19.292Z,18.60
2022-12-18T03:44:50.056Z,18.80
2022-12-18T03:45:20.835Z,20.20
2022-12-18T03:45:51.623Z,19.60
2022-12-18T03:46:22.405Z,20.80
2022-12-18T03:46:53.249Z,19.80
2022-12-18T03:47:24.005Z,20.30
2022-12-18T03:47:54.795Z,19.20
2022-12-18T03:48:25.558Z,18.40
2022-12-18T03:48:56.343Z,18.90
2022-12-18T03:49:27.127Z,18.50
2022-12-18T03:49:57.907Z,19.50
2022-12-18T03:50:28.685Z,19.00
2022-12-18T03:50:59.442Z,18.40
2022-12-18T03:51:30.205Z,18.50
2022-12-18T03:52:00.949Z,18.20
2022-12-18T03:52:31.711Z,17.20
2022-12-18T03:53:02.479Z,18.90
2022-12-18T03:53:33.230Z,20.30
2022-12-18T03:54:03.997Z,19.90
2022-12-18T03:54:34.746Z,19.20
2022-12-18T03:55:05.496Z,18.70
2022-12-18T03:55:36.267Z,20.00
2022-12-18T03:56:07.034Z,18.60
2022-12-18T03:56:37.796Z,18.50
2022-12-18T03:57:08.575Z,18.40
2022-12-18T03:57:39.328Z,19.10
2022-12-18T03:58:10.102Z,18.10
2022-12-18T03:58:40.875Z,18.00
2022-12-18T03:59:12.806Z,18.70
2022-12-18T03:59:43.574Z,19.00
2022-12-18T04:00:14.320Z,18.30
2022-12-18T04:00:45.099Z,17.80
2022-12-18T04:01:15.981Z,18.00
2022-12-18T04:01:46.928Z,18.80
2022-12-18T04:02:17.853Z,19.80
2022-12-18T04:02:48.784Z,20.30
2022-12-18T04:03:22.656Z,19.70
2022-12-18T04:03:52.271Z,18.70
2022-12-18T04:04:23.036Z,17.50
2022-12-18T04:04:53.789Z,18.80
2022-12-18T04:05:24.536Z,18.80
2022-12-18T04:05:55.337Z,17.70
2022-12-18T04:06:26.099Z,18.20
2022-12-18T04:06:56.866Z,19.50
2022-12-18T04:07:27.645Z,18.90
2022-12-18T04:07:58.487Z,18.50
2022-12-18T04:08:29.260Z,18.50
2022-12-18T04:09:00.018Z,18.30
2022-12-18T04:09:30.769Z,19.70
2022-12-18T04:10:01.544Z,20.00
2022-12-18T04:10:32.298Z,18.80
2022-12-18T04:11:03.132Z,19.20
2022-12-18T04:11:34.100Z,18.70
2022-12-18T04:12:04.867Z,19.10
2022-12-18T04:12:35.627Z,18.80
2022-12-18T04:13:06.400Z,18.30
2022-12-18T04:13:37.616Z,21.70
2022-12-18T04:14:09.936Z,20.70
2022-12-18T04:14:39.607Z,21.60
2022-12-18T04:15:10.349Z,20.80
2022-12-18T04:15:41.214Z,22.40
2022-12-18T04:16:12.148Z,37.80
2022-12-18T04:16:42.910Z,36.60
2022-12-18T04:17:13.695Z,31.80
2022-12-18T04:17:44.449Z,32.80
2022-12-18T04:18:15.208Z,26.20
2022-12-18T04:18:45.948Z,24.20
2022-12-18T04:19:16.978Z,27.00
2022-12-18T04:19:47.981Z,32.30
2022-12-18T04:20:18.756Z,34.20
2022-12-18T04:20:49.545Z,26.80
2022-12-18T04:21:20.315Z,27.40
2022-12-18T04:21:51.063Z,21.40
2022-12-18T04:22:21.861Z,21.00
2022-12-18T04:22:52.612Z,20.80
2022-12-18T04:23:23.380Z,18.80
2022-12-18T04:23:54.606Z,20.30
2022-12-18T04:24:25.378Z,20.60
2022-12-18T04:24:56.130Z,20.30
2022-12-18T04:25:26.889Z,38.80
2022-12-18T04:25:57.661Z,42.30
2022-12-18T04:26:28.427Z,44.80
2022-12-18T04:26:59.190Z,51.40
2022-12-18T04:27:29.971Z,41.70
2022-12-18T04:28:00.753Z,26.30
2022-12-18T04:28:31.531Z,31.00
2022-12-18T04:29:02.283Z,29.80
2022-12-18T04:29:33.064Z,32.50
2022-12-18T04:30:03.832Z,25.80
2022-12-18T04:30:34.593Z,23.20
2022-12-18T04:31:05.384Z,72.70
2022-12-18T04:31:36.187Z,103.70
2022-12-18T04:32:06.941Z,71.40
2022-12-18T04:32:37.712Z,33.00
2022-12-18T04:33:08.493Z,22.00
2022-12-18T04:33:39.712Z,23.70
2022-12-18T04:34:10.705Z,35.20
2022-12-18T04:34:41.464Z,28.20
2022-12-18T04:35:12.224Z,24.30
2022-12-18T04:35:42.993Z,30.20
2022-12-18T04:36:13.752Z,26.20
2022-12-18T04:36:44.571Z,22.60
2022-12-18T04:37:15.341Z,25.50
2022-12-18T04:37:46.093Z,30.30
2022-12-18T04:38:16.866Z,29.20
2022-12-18T04:38:47.623Z,20.10
2022-12-18T04:39:18.395Z,22.50
2022-12-18T04:39:49.151Z,22.30
2022-12-18T04:40:19.914Z,21.20
2022-12-18T04:40:50.661Z,20.60
2022-12-18T04:41:21.445Z,22.60
2022-12-18T04:41:52.222Z,24.20
2022-12-18T04:42:22.986Z,27.30
2022-12-18T04:42:53.793Z,31.70
2022-12-18T04:43:24.643Z,33.40
2022-12-18T04:43:55.427Z,34.10
2022-12-18T04:44:26.213Z,33.20
2022-12-18T04:44:56.986Z,24.10
2022-12-18T04:45:27.745Z,20.60
2022-12-18T04:45:58.552Z,20.10
2022-12-18T04:46:29.388Z,21.10
2022-12-18T04:47:00.202Z,23.20
2022-12-18T04:47:30.954Z,23.10
2022-12-18T04:48:01.729Z,24.50
2022-12-18T04:48:32.496Z,25.50
2022-12-18T04:49:03.254Z,24.70
2022-12-18T04:49:34.020Z,31.40
2022-12-18T04:50:04.784Z,32.20
2022-12-18T04:50:35.546Z,25.20
2022-12-18T04:51:06.310Z,21.10
2022-12-18T04:51:37.083Z,20.60
2022-12-18T04:52:07.845Z,22.70
2022-12-18T04:52:38.616Z,24.50
2022-12-18T04:53:09.386Z,46.60
2022-12-18T04:53:41.340Z,39.70
2022-12-18T04:54:12.359Z,27.80
2022-12-18T04:54:43.107Z,33.20
2022-12-18T04:55:13.857Z,38.60
2022-12-18T04:55:44.635Z,38.20
2022-12-18T04:56:15.393Z,42.60
2022-12-18T04:56:46.167Z,30.10
2022-12-18T04:57:16.917Z,30.00
2022-12-18T04:57:47.692Z,30.80
2022-12-18T04:58:18.460Z,33.60
2022-12-18T04:58:49.228Z,28.40
2022-12-18T04:59:19.985Z,25.70
2022-12-18T04:59:50.748Z,23.40
2022-12-18T05:00:21.526Z,21.80
2022-12-18T05:00:52.288Z,22.70
2022-12-18T05:01:23.229Z,21.00
2022-12-18T05:01:54.239Z,21.90
2022-12-18T05:02:25.216Z,21.10
2022-12-18T05:02:56.215Z,21.50
2022-12-18T05:03:27.011Z,22.40
2022-12-18T05:03:57.860Z,27.20
2022-12-18T05:04:28.626Z,33.50
2022-12-18T05:04:59.397Z,33.30
2022-12-18T05:05:30.146Z,34.60
2022-12-18T05:06:00.934Z,40.60
2022-12-18T05:06:31.672Z,37.90
2022-12-18T05:07:02.460Z,35.00
2022-12-18T05:07:33.229Z,35.20
2022-12-18T05:08:04.001Z,45.20
2022-12-18T05:08:34.770Z,44.90
2022-12-18T05:09:05.529Z,53.10
2022-12-18T05:09:36.760Z,47.30
2022-12-18T05:10:07.515Z,42.10
2022-12-18T05:10:38.632Z,44.10
2022-12-18T05:11:09.389Z,26.60
2022-12-18T05:11:41.309Z,25.20
2022-12-18T05:12:12.080Z,23.60
2022-12-18T05:12:42.849Z,26.60
2022-12-18T05:13:13.616Z,30.10
2022-12-18T05:13:44.378Z,26.30
2022-12-18T05:14:15.141Z,27.50
2022-12-18T05:14:45.928Z,23.80
2022-12-18T05:15:16.707Z,20.00
2022-12-18T05:15:47.489Z,18.50
2022-12-18T05:16:18.395Z,20.40
2022-12-18T05:16:49.189Z,21.30
2022-12-18T05:17:19.979Z,21.00
2022-12-18T05:17:50.729Z,17.10
2022-12-18T05:18:21.500Z,18.80
2022-12-18T05:18:52.247Z,18.20
2022-12-18T05:19:22.998Z,19.40
2022-12-18T05:19:53.751Z,18.90
2022-12-18T05:20:24.519Z,17.70
2022-12-18T05:20:55.280Z,17.20
2022-12-18T05:21:26.041Z,17.60
2022-12-18T05:21:56.858Z,18.00
2022-12-18T05:22:27.659Z,16.90
2022-12-18T05:22:58.521Z,17.40
2022-12-18T05:23:29.281Z,16.60
2022-12-18T05:24:00.065Z,17.00
2022-12-18T05:24:30.850Z,17.00
2022-12-18T05:25:01.641Z,16.60
2022-12-18T05:25:32.419Z,15.50
2022-12-18T05:26:03.200Z,18.50
2022-12-18T05:26:33.952Z,18.00
2022-12-18T05:27:04.714Z,17.20
2022-12-18T05:27:35.501Z,16.20
2022-12-18T05:28:06.261Z,16.70
2022-12-18T05:28:37.047Z,16.20
2022-12-18T05:29:07.784Z,16.10
2022-12-18T05:29:38.542Z,16.50
2022-12-18T05:30:09.301Z,17.80
2022-12-18T05:30:40.055Z,16.40
2022-12-18T05:31:10.893Z,17.20
2022-12-18T05:31:41.759Z,16.30
2022-12-18T05:32:13.851Z,17.50
2022-12-18T05:32:44.635Z,17.40
2022-12-18T05:33:15.383Z,17.40
2022-12-18T05:33:46.144Z,17.20
2022-12-18T05:34:16.905Z,15.50
2022-12-18T05:34:47.673Z,16.30
2022-12-18T05:35:18.424Z,15.60
2022-12-18T05:35:49.194Z,16.80
2022-12-18T05:36:19.944Z,17.50
2022-12-18T05:36:50.714Z,16.50
2022-12-18T05:37:21.474Z,16.00
2022-12-18T05:37:52.237Z,16.40
2022-12-18T05:38:23.009Z,17.30
2022-12-18T05:38:53.766Z,17.90
2022-12-18T05:39:24.532Z,16.40
2022-12-18T05:39:55.307Z,16.00
2022-12-18T05:40:26.063Z,18.00
2022-12-18T05:40:56.829Z,18.20
2022-12-18T05:41:27.592Z,16.70
2022-12-18T05:41:58.352Z,17.20
2022-12-18T05:42:29.107Z,17.70
2022-12-18T05:42:59.904Z,17.20
2022-12-18T05:43:30.782Z,17.40
2022-12-18T05:44:01.554Z,16.60
2022-12-18T05:44:32.312Z,16.60
2022-12-18T05:45:03.072Z,17.30
2022-12-18T05:45:33.826Z,18.50
2022-12-18T05:46:04.601Z,17.20
2022-12-18T05:46:35.418Z,16.00
2022-12-18T05:47:06.414Z,16.50
2022-12-18T05:47:37.192Z,16.00
2022-12-18T05:48:07.993Z,16.30
2022-12-18T05:48:38.746Z,16.40
2022-12-18T05:49:09.515Z,16.80
2022-12-18T05:49:40.296Z,15.30
2022-12-18T05:50:11.064Z,16.60
2022-12-18T05:50:41.805Z,16.90
2022-12-18T05:51:12.606Z,16.00
2022-12-18T05:51:43.377Z,17.20
2022-12-18T05:52:14.120Z,15.60
2022-12-18T05:52:44.901Z,16.40
2022-12-18T05:53:15.683Z,17.20
2022-12-18T05:53:46.446Z,16.90
2022-12-18T05:54:17.220Z,16.80
2022-12-18T05:54:47.977Z,17.50
2022-12-18T05:55:18.740Z,17.90
2022-12-18T05:55:49.480Z,16.50
2022-12-18T05:56:20.266Z,16.40
2022-12-18T05:56:51.041Z,16.10
2022-12-18T05:57:21.798Z,16.10
2022-12-18T05:57:52.575Z,15.20
2022-12-18T05:58:23.327Z,16.90
2022-12-18T05:58:54.088Z,15.90
2022-12-18T05:59:24.859Z,15.20
2022-12-18T05:59:55.626Z,16.10
2022-12-18T06:00:26.386Z,17.60
2022-12-18T06:00:57.145Z,16.60
2022-12-18T06:01:28.019Z,15.40
2022-12-18T06:01:59.078Z,15.40
2022-12-18T06:02:30.122Z,15.80
2022-12-18T06:03:01.089Z,16.40
2022-12-18T06:03:34.072Z,16.50
2022-12-18T06:04:01.997Z,17.10
2022-12-18T06:04:33.510Z,16.50
2022-12-18T06:05:04.263Z,15.10
2022-12-18T06:05:35.027Z,15.00
2022-12-18T06:06:05.809Z,15.70
2022-12-18T06:06:36.577Z,15.90
2022-12-18T06:07:08.027Z,16.70
2022-12-18T06:07:38.796Z,16.00
2022-12-18T06:08:09.591Z,16.20
2022-12-18T06:08:45.969Z,16.00
2022-12-18T06:09:13.067Z,16.70
2022-12-18T06:09:43.836Z,16.20
2022-12-18T06:10:14.609Z,16.10
2022-12-18T06:10:46.037Z,16.80
2022-12-18T06:11:16.816Z,16.70
2022-12-18T06:11:47.578Z,16.50
2022-12-18T06:12:18.329Z,16.10
2022-12-18T06:12:49.117Z,16.50
2022-12-18T06:13:19.907Z,16.90
2022-12-18T06:13:53.584Z,15.90
2022-12-18T06:14:23.287Z,16.80
2022-12-18T06:14:54.049Z,16.40
2022-12-18T06:15:24.809Z,17.10
2022-12-18T06:15:55.620Z,17.80
2022-12-18T06:16:26.444Z,16.30
2022-12-18T06:16:57.240Z,16.40
2022-12-18T06:17:28.009Z,16.50
2022-12-18T06:17:58.768Z,15.80
2022-12-18T06:18:29.567Z,15.40
2022-12-18T06:19:00.326Z,15.70
2022-12-18T06:19:31.347Z,15.90
2022-12-18T06:20:02.124Z,15.70
2022-12-18T06:20:33.810Z,16.10
2022-12-18T06:21:04.722Z,17.40
2022-12-18T06:21:35.519Z,16.00
2022-12-18T06:22:07.125Z,16.80
2022-12-18T06:22:37.888Z,16.60
2022-12-18T06:23:08.668Z,17.10
2022-12-18T06:23:39.830Z,16.50
2022-12-18T06:24:10.799Z,16.80
2022-12-18T06:24:41.561Z,16.30
2022-12-18T06:25:12.319Z,15.00
2022-12-18T06:25:43.079Z,15.10
2022-12-18T06:26:13.856Z,14.90
2022-12-18T06:26:44.615Z,14.60
2022-12-18T06:27:15.368Z,15.10
2022-12-18T06:27:46.126Z,16.20
2022-12-18T06:28:17.022Z,15.70
2022-12-18T06:28:47.778Z,14.20
2022-12-18T06:29:18.570Z,14.20
2022-12-18T06:29:49.329Z,15.30
2022-12-18T06:30:20.138Z,14.20
2022-12-18T06:30:50.901Z,14.20
2022-12-18T06:31:21.741Z,15.30
2022-12-18T06:31:52.548Z,16.00
2022-12-18T06:32:23.301Z,16.20
2022-12-18T06:32:56.754Z,16.20
2022-12-18T06:33:24.780Z,16.00
2022-12-18T06:33:55.530Z,16.40
2022-12-18T06:34:26.269Z,15.80
2022-12-18T06:34:57.018Z,14.80
2022-12-18T06:35:27.760Z,15.40
2022-12-18T06:36:01.113Z,16.40
2022-12-18T06:36:29.017Z,16.80
2022-12-18T06:36:59.802Z,16.40
2022-12-18T06:37:30.540Z,15.80
2022-12-18T06:38:01.296Z,15.00
2022-12-18T06:38:32.049Z,14.30
2022-12-18T06:39:02.809Z,14.50
2022-12-18T06:39:33.570Z,15.50
2022-12-18T06:40:04.319Z,15.50
2022-12-18T06:40:35.060Z,14.80
2022-12-18T06:41:05.802Z,14.30
2022-12-18T06:41:36.553Z,14.80
2022-12-18T06:42:07.289Z,15.00
2022-12-18T06:42:38.030Z,14.10
2022-12-18T06:43:08.771Z,13.50
2022-12-18T06:43:39.896Z,16.10
2022-12-18T06:44:10.829Z,14.60
2022-12-18T06:44:42.010Z,13.60
2022-12-18T06:45:12.760Z,14.40
2022-12-18T06:45:43.587Z,14.20
2022-12-18T06:46:14.408Z,15.40
2022-12-18T06:46:45.226Z,16.10
2022-12-18T06:47:15.992Z,16.90
2022-12-18T06:47:46.729Z,15.20
2022-12-18T06:48:17.472Z,16.30
2022-12-18T06:48:48.229Z,16.30
2022-12-18T06:49:18.974Z,16.30
2022-12-18T06:49:49.711Z,16.10
2022-12-18T06:50:20.491Z,15.80
2022-12-18T06:50:51.231Z,15.90
2022-12-18T06:51:21.992Z,15.40
2022-12-18T06:51:52.722Z,15.60
2022-12-18T06:52:23.494Z,16.40
2022-12-18T06:52:54.228Z,16.10
2022-12-18T06:53:25.003Z,16.50
2022-12-18T06:53:55.734Z,18.30
2022-12-18T06:54:26.495Z,17.90
2022-12-18T06:54:57.239Z,16.70
2022-12-18T06:55:27.979Z,16.90
2022-12-18T06:55:58.722Z,17.00
2022-12-18T06:56:29.461Z,16.10
2022-12-18T06:57:00.221Z,17.30
2022-12-18T06:57:30.992Z,16.40
2022-12-18T06:58:01.732Z,16.20
2022-12-18T06:58:32.499Z,14.90
2022-12-18T06:59:03.248Z,15.50
2022-12-18T06:59:33.995Z,15.90
2022-12-18T07:00:04.740Z,15.20
2022-12-18T07:00:35.545Z,15.50
2022-12-18T07:01:06.387Z,14.00
2022-12-18T07:01:37.291Z,14.50
2022-12-18T07:02:08.332Z,13.60
2022-12-18T07:02:39.241Z,13.80
2022-12-18T07:03:10.181Z,15.00
2022-12-18T07:03:41.477Z,16.00
2022-12-18T07:04:12.520Z,15.00
2022-12-18T07:40:30.434Z,12.70
2022-12-18T07:41:01.187Z,13.90
2022-12-18T07:41:31.968Z,15.00
2022-12-18T07:42:02.738Z,14.60
2022-12-18T07:42:33.497Z,16.10
2022-12-18T07:43:04.238Z,15.50
2022-12-18T07:43:34.969Z,15.80
2022-12-18T07:44:05.707Z,16.50
2022-12-18T07:44:36.457Z,15.40
2022-12-18T07:45:07.206Z,16.60
2022-12-18T07:45:37.979Z,17.10
2022-12-18T07:46:08.768Z,16.60
2022-12-18T07:46:39.507Z,15.50
2022-12-18T07:47:12.181Z,15.50
2022-12-18T07:47:43.169Z,16.30
2022-12-18T07:48:13.904Z,15.60
2022-12-18T07:48:45.397Z,17.00
2022-12-18T07:49:17.007Z,16.40
2022-12-18T07:49:47.745Z,16.70
2022-12-18T07:50:18.485Z,16.50
2022-12-18T07:50:49.229Z,17.40
2022-12-18T07:51:19.971Z,15.80
2022-12-18T07:51:50.759Z,16.20
2022-12-18T07:52:25.963Z,15.50
2022-12-18T07:52:54.172Z,15.50
2022-12-18T07:53:24.952Z,15.10
2022-12-18T07:53:55.739Z,14.90
2022-12-18T07:54:26.531Z,15.10
2022-12-18T07:54:57.285Z,16.20
2022-12-18T07:55:28.499Z,15.70
2022-12-18T07:56:25.965Z,14.40
2022-12-18T07:56:32.950Z,15.50
2022-12-18T07:57:03.709Z,16.60
2022-12-18T07:57:49.879Z,16.50
2022-12-18T07:58:07.092Z,15.60
2022-12-18T07:58:37.861Z,15.80
2022-12-18T07:59:08.611Z,16.70
2022-12-18T07:59:39.380Z,18.70
2022-12-18T08:00:10.132Z,16.70
2022-12-18T08:00:40.889Z,15.60
2022-12-18T08:01:11.697Z,15.70
2022-12-18T08:01:42.588Z,17.10
2022-12-18T08:02:13.857Z,16.90
2022-12-18T08:02:44.871Z,16.90
2022-12-18T08:03:15.771Z,16.40
2022-12-18T08:03:46.560Z,16.10
2022-12-18T08:04:18.889Z,17.10
2022-12-18T08:04:49.680Z,16.80
2022-12-18T08:05:20.437Z,15.80
2022-12-18T08:05:51.203Z,15.50
2022-12-18T08:06:24.018Z,15.90
2022-12-18T08:06:52.310Z,17.40
2022-12-18T08:07:23.071Z,15.90
2022-12-18T08:07:53.841Z,17.80
2022-12-18T08:08:24.590Z,18.80
2022-12-18T08:08:55.412Z,20.40
2022-12-18T08:09:26.212Z,16.30
2022-12-18T08:09:57.003Z,16.70
2022-12-18T08:10:27.852Z,17.00
2022-12-18T08:10:58.632Z,16.70
2022-12-18T08:11:29.379Z,16.10
2022-12-18T08:12:00.145Z,14.80
2022-12-18T08:12:30.903Z,15.30
2022-12-18T08:13:05.143Z,15.80
2022-12-18T08:13:33.109Z,15.60
2022-12-18T08:14:03.882Z,15.00
2022-12-18T08:14:34.644Z,15.20
2022-12-18T08:15:05.433Z,15.70
2022-12-18T08:15:37.012Z,16.10
2022-12-18T08:16:07.962Z,16.60
2022-12-18T08:16:38.883Z,16.70
2022-12-18T08:17:09.720Z,17.60
2022-12-18T08:17:40.461Z,16.60
2022-12-18T08:18:14.243Z,17.00
2022-12-18T08:18:42.278Z,16.70
2022-12-18T08:19:13.013Z,17.10
2022-12-18T08:19:43.781Z,15.60
2022-12-18T08:20:14.539Z,16.90
2022-12-18T08:20:45.294Z,18.20
2022-12-18T08:21:16.067Z,15.80
2022-12-18T08:21:46.811Z,15.50
2022-12-18T08:22:17.591Z,15.00
2022-12-18T08:22:48.330Z,15.80
2022-12-18T08:23:19.093Z,17.20
2022-12-18T08:23:51.116Z,17.70
2022-12-18T08:24:22.300Z,16.60
2022-12-18T08:24:53.062Z,15.20
2022-12-18T08:25:23.822Z,16.10
2022-12-18T08:25:54.592Z,16.70
2022-12-18T08:26:25.343Z,17.00
2022-12-18T08:27:27.709Z,15.70
2022-12-18T08:27:29.960Z,15.70
2022-12-18T08:28:01.148Z,15.00
2022-12-18T08:28:31.903Z,14.00
2022-12-18T08:29:02.643Z,14.60
2022-12-18T08:29:33.392Z,14.70
2022-12-18T08:30:04.155Z,14.80
2022-12-18T08:30:35.242Z,13.20
2022-12-18T08:31:06.277Z,13.30
2022-12-18T08:31:37.136Z,13.70
2022-12-18T08:32:07.953Z,14.60
2022-12-18T08:32:38.703Z,14.80
2022-12-18T08:33:09.963Z,15.30